Terminal Aerodrome Forecast
Issued by NWS Jackson, MS

Current Version | Previous Version | Text Only | Print | Product List | Glossary On
Versions: 1 2 3 4 5 6 7 8 9 10 11 12 13 14 15 16
000
FTUS44 KJAN 301700
TAFMEI
TAF
KMEI 301720Z 3018/0118 33003KT P6SM SCT015
     FM302000 06005KT P6SM SCT050
     FM011000 VRB03KT 4SM BR SCT100
     FM011400 06005KT P6SM SCT060=

USA.gov is the U.S. government's official web portal to all federal, state and local government web resources and services.